createdAt,value
2018-11-22T12:16:09.190Z,102191.78
2018-11-22T12:21:11.348Z,102185.55
2018-11-22T12:26:13.490Z,102183.41
2018-11-22T12:31:15.639Z,102178.81
2018-11-22T12:36:22.946Z,102180.50
2018-11-22T12:41:25.096Z,102172.23
2018-11-22T12:46:27.326Z,102167.67
2018-11-22T12:51:29.480Z,102167.10
2018-11-22T12:56:31.626Z,102156.60
2018-11-22T13:01:33.793Z,102149.41
2018-11-22T13:06:36.073Z,102145.66
2018-11-22T13:11:39.049Z,102144.42
2018-11-22T13:16:41.262Z,102149.00
2018-11-22T13:21:43.386Z,102146.89
2018-11-22T13:26:45.554Z,102146.48
2018-11-22T13:31:47.680Z,102150.00
2018-11-22T13:36:49.842Z,102138.94
2018-11-22T13:41:52.014Z,102138.65
2018-11-22T13:46:54.157Z,102135.25
2018-11-22T13:51:56.280Z,102132.58
2018-11-22T13:56:58.444Z,102137.92
2018-11-22T14:02:00.582Z,102132.30
2018-11-22T14:07:02.760Z,102134.35
2018-11-22T14:12:04.941Z,102137.27
2018-11-22T14:17:07.113Z,102138.95
2018-11-22T14:22:09.242Z,102129.02
2018-11-22T14:27:11.390Z,102131.91
2018-11-22T14:32:13.526Z,102132.99
2018-11-22T14:37:15.659Z,102133.99
2018-11-22T14:42:17.831Z,102136.80
2018-11-22T14:47:19.981Z,102137.98
2018-11-22T14:52:22.121Z,102129.47
2018-11-22T14:57:24.267Z,102135.52
2018-11-22T15:02:26.383Z,102122.70
2018-11-22T15:07:28.875Z,102130.80
2018-11-22T15:12:30.693Z,102125.50
2018-11-22T15:17:32.924Z,102131.36
2018-11-22T15:22:35.070Z,102130.76
2018-11-22T15:27:37.211Z,102124.27
2018-11-22T15:32:39.355Z,102124.84
2018-11-22T15:37:41.561Z,102137.10
2018-11-22T15:42:44.570Z,102132.77
2018-11-22T15:47:46.965Z,102136.74
2018-11-22T15:52:49.141Z,102141.84
2018-11-22T15:57:52.778Z,102148.70
2018-11-22T16:02:55.603Z,102143.97
2018-11-22T16:07:57.776Z,102143.61
2018-11-22T16:13:02.021Z,102145.67
2018-11-22T16:18:04.255Z,102152.66
2018-11-22T16:23:06.676Z,102152.83
2018-11-22T16:28:08.809Z,102153.66
2018-11-22T16:33:10.948Z,102151.22
2018-11-22T16:38:13.075Z,102150.62
2018-11-22T16:43:15.200Z,102148.72
2018-11-22T16:48:17.367Z,102145.63
2018-11-22T16:53:19.515Z,102150.20
2018-11-22T16:58:21.707Z,102156.73
2018-11-22T17:03:23.844Z,102160.88
2018-11-22T17:08:26.093Z,102168.77
2018-11-22T17:13:28.223Z,102159.27
2018-11-22T17:18:30.379Z,102158.86
2018-11-22T17:23:32.575Z,102157.69
2018-11-22T17:28:34.707Z,102162.13
2018-11-22T17:33:36.852Z,102151.44
2018-11-22T17:38:39.020Z,102159.48
2018-11-22T17:43:41.176Z,102152.00
2018-11-22T17:48:43.886Z,102150.49
2018-11-22T17:53:46.035Z,102160.79
2018-11-22T17:58:48.257Z,102161.15
2018-11-22T18:03:50.428Z,102162.09
2018-11-22T18:08:52.579Z,102156.89
2018-11-22T18:13:54.791Z,102166.37
2018-11-22T18:18:57.011Z,102163.25
2018-11-22T18:23:59.186Z,102167.59
2018-11-22T18:29:01.591Z,102167.57
2018-11-22T18:34:03.814Z,102174.16
2018-11-22T18:39:07.460Z,102163.68
2018-11-22T18:44:09.678Z,102163.88
2018-11-22T18:49:13.571Z,102159.45
2018-11-22T18:54:15.846Z,102159.30
2018-11-22T18:59:18.090Z,102158.45
2018-11-22T19:04:20.297Z,102162.08
2018-11-22T19:09:22.509Z,102156.95
2018-11-22T19:14:24.775Z,102162.51
2018-11-22T19:19:27.159Z,102151.11
2018-11-22T19:24:29.396Z,102165.77
2018-11-22T19:29:31.650Z,102156.00
2018-11-22T19:34:34.164Z,102159.81
2018-11-22T19:39:36.396Z,102164.84
2018-11-22T19:44:38.721Z,102164.89
2018-11-22T19:49:41.165Z,102162.56
2018-11-22T19:54:43.718Z,102160.44
2018-11-22T19:59:46.213Z,102166.47
2018-11-22T20:04:48.523Z,102167.03
2018-11-22T20:09:50.865Z,102161.87
2018-11-22T20:14:53.150Z,102167.27
2018-11-22T20:19:55.416Z,102172.74
2018-11-22T20:24:57.970Z,102170.42
2018-11-22T20:30:00.627Z,102166.16
2018-11-22T20:35:03.105Z,102170.28
2018-11-22T20:40:06.231Z,102165.94
2018-11-22T20:45:10.659Z,102166.80
2018-11-22T20:50:16.425Z,102161.94
2018-11-22T20:55:24.712Z,102164.96
2018-11-22T21:00:28.329Z,102161.72
2018-11-22T21:05:30.803Z,102166.80
2018-11-22T21:10:33.541Z,102157.41
2018-11-22T21:15:36.232Z,102155.74
2018-11-22T21:20:39.922Z,102151.91
2018-11-22T21:25:42.192Z,102151.84
2018-11-22T21:30:44.355Z,102145.47
2018-11-22T21:35:46.577Z,102143.05
2018-11-22T21:40:48.782Z,102146.00
2018-11-22T21:45:50.989Z,102149.60
2018-11-22T21:50:53.156Z,102146.67
2018-11-22T21:55:55.353Z,102152.42
2018-11-22T22:00:57.551Z,102144.44
2018-11-22T22:05:59.721Z,102140.41
2018-11-22T22:11:01.910Z,102144.78
2018-11-22T22:16:04.373Z,102145.53
2018-11-22T22:21:06.557Z,102144.36
2018-11-22T22:26:08.747Z,102145.17
2018-11-22T22:31:10.907Z,102143.97
2018-11-22T22:36:13.068Z,102136.86
2018-11-22T22:41:15.205Z,102139.38
2018-11-22T22:46:17.642Z,102142.95
2018-11-22T22:51:19.868Z,102141.28
2018-11-22T22:56:22.055Z,102141.53
2018-11-22T23:01:24.224Z,102144.60
2018-11-22T23:06:26.375Z,102143.56
2018-11-22T23:11:29.642Z,102137.23
2018-11-22T23:16:31.801Z,102136.45
2018-11-22T23:21:33.964Z,102143.84
2018-11-22T23:26:36.112Z,102144.38
2018-11-22T23:31:38.287Z,102142.92
2018-11-22T23:36:40.411Z,102147.24
2018-11-22T23:41:42.571Z,102145.27
2018-11-22T23:46:44.705Z,102151.41
2018-11-22T23:51:46.833Z,102148.13
2018-11-22T23:56:48.951Z,102138.23
